sensor_id;sensor_type;location;lat;lon;timestamp;temperature;humidity
15413;DHT22;7805;49.554;7.632;2023-08-24T00:01:15;20.00;99.90
15413;DHT22;7805;49.554;7.632;2023-08-24T00:03:45;19.90;99.90
15413;DHT22;7805;49.554;7.632;2023-08-24T00:06:14;19.80;99.90
15413;DHT22;7805;49.554;7.632;2023-08-24T00:08:39;19.80;99.90
15413;DHT22;7805;49.554;7.632;2023-08-24T00:11:05;19.80;99.90
15413;DHT22;7805;49.554;7.632;2023-08-24T00:13:31;19.80;99.90
15413;DHT22;7805;49.554;7.632;2023-08-24T00:15:57;19.80;99.90
15413;DHT22;7805;49.554;7.632;2023-08-24T00:18:24;19.80;99.90
15413;DHT22;7805;49.554;7.632;2023-08-24T00:20:49;19.70;99.90
15413;DHT22;7805;49.554;7.632;2023-08-24T00:23:16;19.70;99.90
15413;DHT22;7805;49.554;7.632;2023-08-24T00:25:42;19.70;99.90
15413;DHT22;7805;49.554;7.632;2023-08-24T00:28:08;19.80;99.90
15413;DHT22;7805;49.554;7.632;2023-08-24T00:30:33;19.80;99.90
15413;DHT22;7805;49.554;7.632;2023-08-24T00:32:59;19.70;99.90
15413;DHT22;7805;49.554;7.632;2023-08-24T00:35:24;19.60;99.90
15413;DHT22;7805;49.554;7.632;2023-08-24T00:37:50;19.60;99.90
15413;DHT22;7805;49.554;7.632;2023-08-24T00:40:16;19.90;99.90
15413;DHT22;7805;49.554;7.632;2023-08-24T00:42:43;19.60;99.90
15413;DHT22;7805;49.554;7.632;2023-08-24T00:45:11;19.80;99.90
15413;DHT22;7805;49.554;7.632;2023-08-24T00:47:38;19.70;99.90
15413;DHT22;7805;49.554;7.632;2023-08-24T00:50:06;19.70;99.90
15413;DHT22;7805;49.554;7.632;2023-08-24T00:52:33;19.80;99.90
15413;DHT22;7805;49.554;7.632;2023-08-24T00:54:59;19.80;99.90
15413;DHT22;7805;49.554;7.632;2023-08-24T00:57:27;19.80;99.90
15413;DHT22;7805;49.554;7.632;2023-08-24T00:59:54;19.80;99.90
15413;DHT22;7805;49.554;7.632;2023-08-24T01:02:20;19.80;99.90
15413;DHT22;7805;49.554;7.632;2023-08-24T01:04:47;19.80;99.90
15413;DHT22;7805;49.554;7.632;2023-08-24T01:07:16;19.80;99.90
15413;DHT22;7805;49.554;7.632;2023-08-24T01:09:42;19.80;99.90
15413;DHT22;7805;49.554;7.632;2023-08-24T01:12:25;20.10;99.90
15413;DHT22;7805;49.554;7.632;2023-08-24T01:15:07;19.70;99.90
15413;DHT22;7805;49.554;7.632;2023-08-24T01:17:35;19.70;99.90
15413;DHT22;7805;49.554;7.632;2023-08-24T01:20:02;19.70;99.90
15413;DHT22;7805;49.554;7.632;2023-08-24T01:22:37;19.70;99.90
15413;DHT22;7805;49.554;7.632;2023-08-24T01:25:12;19.80;99.90
15413;DHT22;7805;49.554;7.632;2023-08-24T01:27:40;19.90;99.90
15413;DHT22;7805;49.554;7.632;2023-08-24T01:30:06;19.60;99.90
15413;DHT22;7805;49.554;7.632;2023-08-24T01:32:34;19.60;99.90
15413;DHT22;7805;49.554;7.632;2023-08-24T01:35:01;19.70;99.90
15413;DHT22;7805;49.554;7.632;2023-08-24T01:37:27;19.80;99.90
15413;DHT22;7805;49.554;7.632;2023-08-24T01:40:20;19.80;99.90
15413;DHT22;7805;49.554;7.632;2023-08-24T01:45:19;19.70;99.90
15413;DHT22;7805;49.554;7.632;2023-08-24T01:47:48;19.60;99.90
15413;DHT22;7805;49.554;7.632;2023-08-24T01:50:14;19.80;99.90
15413;DHT22;7805;49.554;7.632;2023-08-24T01:52:42;19.70;99.90
15413;DHT22;7805;49.554;7.632;2023-08-24T01:55:08;19.80;99.90
15413;DHT22;7805;49.554;7.632;2023-08-24T01:57:33;19.90;99.90
15413;DHT22;7805;49.554;7.632;2023-08-24T01:59:59;19.80;99.90
15413;DHT22;7805;49.554;7.632;2023-08-24T02:02:25;19.80;99.90
15413;DHT22;7805;49.554;7.632;2023-08-24T02:04:51;19.50;99.90
15413;DHT22;7805;49.554;7.632;2023-08-24T02:07:17;19.70;99.90
15413;DHT22;7805;49.554;7.632;2023-08-24T02:09:42;19.70;99.90
15413;DHT22;7805;49.554;7.632;2023-08-24T02:12:08;20.00;99.90
15413;DHT22;7805;49.554;7.632;2023-08-24T02:14:33;19.70;99.90
15413;DHT22;7805;49.554;7.632;2023-08-24T02:16:59;20.80;99.90
15413;DHT22;7805;49.554;7.632;2023-08-24T02:19:25;19.70;99.90
15413;DHT22;7805;49.554;7.632;2023-08-24T02:21:50;19.60;99.90
15413;DHT22;7805;49.554;7.632;2023-08-24T02:24:16;19.40;99.90
15413;DHT22;7805;49.554;7.632;2023-08-24T02:26:41;19.50;99.90
15413;DHT22;7805;49.554;7.632;2023-08-24T02:29:07;19.50;99.90
15413;DHT22;7805;49.554;7.632;2023-08-24T02:31:33;19.50;99.90
15413;DHT22;7805;49.554;7.632;2023-08-24T02:33:58;19.50;99.90
15413;DHT22;7805;49.554;7.632;2023-08-24T02:36:24;19.50;99.90
15413;DHT22;7805;49.554;7.632;2023-08-24T02:38:50;19.50;99.90
15413;DHT22;7805;49.554;7.632;2023-08-24T02:41:16;19.50;99.90
15413;DHT22;7805;49.554;7.632;2023-08-24T02:43:41;19.40;99.90
15413;DHT22;7805;49.554;7.632;2023-08-24T02:46:08;20.40;99.90
15413;DHT22;7805;49.554;7.632;2023-08-24T02:48:35;19.50;99.90
15413;DHT22;7805;49.554;7.632;2023-08-24T02:51:02;19.50;99.90
15413;DHT22;7805;49.554;7.632;2023-08-24T02:53:28;19.70;99.90
15413;DHT22;7805;49.554;7.632;2023-08-24T02:55:55;19.40;99.90
15413;DHT22;7805;49.554;7.632;2023-08-24T02:58:21;19.50;99.90
15413;DHT22;7805;49.554;7.632;2023-08-24T03:00:47;19.50;99.90
15413;DHT22;7805;49.554;7.632;2023-08-24T03:03:15;19.50;99.90
15413;DHT22;7805;49.554;7.632;2023-08-24T03:08:23;19.50;99.90
15413;DHT22;7805;49.554;7.632;2023-08-24T03:10:49;19.40;99.90
15413;DHT22;7805;49.554;7.632;2023-08-24T03:13:14;19.50;99.90
15413;DHT22;7805;49.554;7.632;2023-08-24T03:15:40;19.50;99.90
15413;DHT22;7805;49.554;7.632;2023-08-24T03:18:05;19.50;99.90
15413;DHT22;7805;49.554;7.632;2023-08-24T03:20:31;19.50;99.90
15413;DHT22;7805;49.554;7.632;2023-08-24T03:22:57;19.50;99.90
15413;DHT22;7805;49.554;7.632;2023-08-24T03:25:23;19.50;99.90
15413;DHT22;7805;49.554;7.632;2023-08-24T03:27:48;19.60;99.90
15413;DHT22;7805;49.554;7.632;2023-08-24T03:30:14;19.60;99.90
15413;DHT22;7805;49.554;7.632;2023-08-24T03:32:40;19.60;99.90
15413;DHT22;7805;49.554;7.632;2023-08-24T03:35:07;19.60;99.90
15413;DHT22;7805;49.554;7.632;2023-08-24T03:37:32;19.60;99.90
15413;DHT22;7805;49.554;7.632;2023-08-24T03:39:58;19.50;99.90
15413;DHT22;7805;49.554;7.632;2023-08-24T03:42:24;19.50;99.90
15413;DHT22;7805;49.554;7.632;2023-08-24T03:44:50;19.60;99.90
15413;DHT22;7805;49.554;7.632;2023-08-24T03:47:15;19.60;99.90
15413;DHT22;7805;49.554;7.632;2023-08-24T03:49:43;19.60;99.90
15413;DHT22;7805;49.554;7.632;2023-08-24T03:52:08;19.60;99.90
15413;DHT22;7805;49.554;7.632;2023-08-24T03:54:34;19.60;99.90
15413;DHT22;7805;49.554;7.632;2023-08-24T03:56:59;19.50;99.90
15413;DHT22;7805;49.554;7.632;2023-08-24T03:59:25;19.40;99.90
15413;DHT22;7805;49.554;7.632;2023-08-24T04:01:50;19.40;99.90
15413;DHT22;7805;49.554;7.632;2023-08-24T04:04:16;19.40;99.90
15413;DHT22;7805;49.554;7.632;2023-08-24T04:06:41;19.40;99.90
15413;DHT22;7805;49.554;7.632;2023-08-24T04:09:07;19.40;99.90
15413;DHT22;7805;49.554;7.632;2023-08-24T04:11:33;19.50;99.90
15413;DHT22;7805;49.554;7.632;2023-08-24T04:13:58;19.50;99.90
15413;DHT22;7805;49.554;7.632;2023-08-24T04:16:24;19.60;99.90
15413;DHT22;7805;49.554;7.632;2023-08-24T04:18:49;19.60;99.90
15413;DHT22;7805;49.554;7.632;2023-08-24T04:21:16;19.60;99.90
15413;DHT22;7805;49.554;7.632;2023-08-24T04:23:41;19.60;99.90
15413;DHT22;7805;49.554;7.632;2023-08-24T04:26:11;19.60;99.90
15413;DHT22;7805;49.554;7.632;2023-08-24T04:28:37;19.60;99.90
15413;DHT22;7805;49.554;7.632;2023-08-24T04:31:03;19.70;99.90
15413;DHT22;7805;49.554;7.632;2023-08-24T04:33:28;19.60;99.90
15413;DHT22;7805;49.554;7.632;2023-08-24T04:35:54;19.60;99.90
15413;DHT22;7805;49.554;7.632;2023-08-24T04:38:20;19.60;99.90
15413;DHT22;7805;49.554;7.632;2023-08-24T04:40:53;19.80;99.90
15413;DHT22;7805;49.554;7.632;2023-08-24T04:43:21;19.60;99.90
15413;DHT22;7805;49.554;7.632;2023-08-24T04:45:51;19.60;99.90
15413;DHT22;7805;49.554;7.632;2023-08-24T04:48:23;19.50;99.90
15413;DHT22;7805;49.554;7.632;2023-08-24T04:50:50;19.20;99.90
15413;DHT22;7805;49.554;7.632;2023-08-24T04:53:17;19.30;99.90
15413;DHT22;7805;49.554;7.632;2023-08-24T04:55:43;19.40;99.90
15413;DHT22;7805;49.554;7.632;2023-08-24T04:58:10;19.50;99.90
15413;DHT22;7805;49.554;7.632;2023-08-24T05:00:37;19.70;99.90
15413;DHT22;7805;49.554;7.632;2023-08-24T05:03:04;19.90;99.90
15413;DHT22;7805;49.554;7.632;2023-08-24T05:05:30;19.90;99.90
15413;DHT22;7805;49.554;7.632;2023-08-24T05:07:57;19.90;99.90
15413;DHT22;7805;49.554;7.632;2023-08-24T05:10:23;19.90;99.90
15413;DHT22;7805;49.554;7.632;2023-08-24T05:12:49;19.90;99.90
15413;DHT22;7805;49.554;7.632;2023-08-24T05:15:14;19.90;99.90
15413;DHT22;7805;49.554;7.632;2023-08-24T05:17:40;19.90;99.90
15413;DHT22;7805;49.554;7.632;2023-08-24T05:20:07;20.00;99.90
15413;DHT22;7805;49.554;7.632;2023-08-24T05:22:37;20.10;99.90
15413;DHT22;7805;49.554;7.632;2023-08-24T05:25:03;20.20;99.90
15413;DHT22;7805;49.554;7.632;2023-08-24T05:27:30;20.20;99.90
15413;DHT22;7805;49.554;7.632;2023-08-24T05:29:55;20.20;99.90
15413;DHT22;7805;49.554;7.632;2023-08-24T05:32:21;20.20;99.90
15413;DHT22;7805;49.554;7.632;2023-08-24T05:34:46;20.30;99.90
15413;DHT22;7805;49.554;7.632;2023-08-24T05:37:12;20.40;99.90
15413;DHT22;7805;49.554;7.632;2023-08-24T05:39:38;20.40;99.90
15413;DHT22;7805;49.554;7.632;2023-08-24T05:42:04;20.50;99.90
15413;DHT22;7805;49.554;7.632;2023-08-24T05:44:30;20.40;99.90
15413;DHT22;7805;49.554;7.632;2023-08-24T05:46:55;20.40;99.90
15413;DHT22;7805;49.554;7.632;2023-08-24T05:49:21;20.40;99.90
15413;DHT22;7805;49.554;7.632;2023-08-24T05:51:49;20.50;99.90
15413;DHT22;7805;49.554;7.632;2023-08-24T05:54:15;20.50;99.90
15413;DHT22;7805;49.554;7.632;2023-08-24T05:56:44;20.50;99.90
15413;DHT22;7805;49.554;7.632;2023-08-24T05:59:09;20.40;99.90
15413;DHT22;7805;49.554;7.632;2023-08-24T06:01:35;20.30;99.90
15413;DHT22;7805;49.554;7.632;2023-08-24T06:04:04;20.40;99.90
15413;DHT22;7805;49.554;7.632;2023-08-24T06:06:30;20.80;99.90
15413;DHT22;7805;49.554;7.632;2023-08-24T06:08:55;20.50;99.90
15413;DHT22;7805;49.554;7.632;2023-08-24T06:11:21;20.60;99.90
15413;DHT22;7805;49.554;7.632;2023-08-24T06:13:46;20.70;99.90
15413;DHT22;7805;49.554;7.632;2023-08-24T06:16:12;20.80;99.90
15413;DHT22;7805;49.554;7.632;2023-08-24T06:18:37;21.00;99.90
15413;DHT22;7805;49.554;7.632;2023-08-24T06:21:03;21.20;99.90
15413;DHT22;7805;49.554;7.632;2023-08-24T06:23:28;21.40;99.90
15413;DHT22;7805;49.554;7.632;2023-08-24T06:25:54;21.60;99.90
15413;DHT22;7805;49.554;7.632;2023-08-24T06:28:20;21.90;99.90
15413;DHT22;7805;49.554;7.632;2023-08-24T06:30:45;22.00;99.90
15413;DHT22;7805;49.554;7.632;2023-08-24T06:33:12;21.90;99.90
15413;DHT22;7805;49.554;7.632;2023-08-24T06:35:38;22.10;99.90
15413;DHT22;7805;49.554;7.632;2023-08-24T06:38:04;22.30;99.90
15413;DHT22;7805;49.554;7.632;2023-08-24T06:40:30;23.70;99.90
15413;DHT22;7805;49.554;7.632;2023-08-24T06:42:56;22.80;99.90
15413;DHT22;7805;49.554;7.632;2023-08-24T06:45:22;22.80;99.90
15413;DHT22;7805;49.554;7.632;2023-08-24T06:47:48;22.90;99.90
15413;DHT22;7805;49.554;7.632;2023-08-24T06:50:14;22.90;99.90
15413;DHT22;7805;49.554;7.632;2023-08-24T06:52:41;23.10;99.90
15413;DHT22;7805;49.554;7.632;2023-08-24T06:55:08;23.60;99.90
15413;DHT22;7805;49.554;7.632;2023-08-24T06:57:34;22.60;99.90
15413;DHT22;7805;49.554;7.632;2023-08-24T07:00:00;23.90;99.90
15413;DHT22;7805;49.554;7.632;2023-08-24T07:02:25;23.50;99.90
15413;DHT22;7805;49.554;7.632;2023-08-24T07:04:51;23.40;99.90
15413;DHT22;7805;49.554;7.632;2023-08-24T07:07:16;23.10;99.90
15413;DHT22;7805;49.554;7.632;2023-08-24T07:09:42;22.90;99.90
15413;DHT22;7805;49.554;7.632;2023-08-24T07:12:08;22.70;99.90
15413;DHT22;7805;49.554;7.632;2023-08-24T07:14:36;22.50;99.90
15413;DHT22;7805;49.554;7.632;2023-08-24T07:17:01;22.60;99.90
15413;DHT22;7805;49.554;7.632;2023-08-24T07:19:27;22.50;99.90
15413;DHT22;7805;49.554;7.632;2023-08-24T07:21:53;22.80;99.90
15413;DHT22;7805;49.554;7.632;2023-08-24T07:24:19;22.60;99.90
15413;DHT22;7805;49.554;7.632;2023-08-24T07:26:46;22.80;99.90
15413;DHT22;7805;49.554;7.632;2023-08-24T07:29:11;23.10;99.90
15413;DHT22;7805;49.554;7.632;2023-08-24T07:31:37;23.40;99.90
15413;DHT22;7805;49.554;7.632;2023-08-24T07:34:03;23.80;99.90
15413;DHT22;7805;49.554;7.632;2023-08-24T07:36:30;24.20;99.90
15413;DHT22;7805;49.554;7.632;2023-08-24T07:38:56;24.60;99.90
15413;DHT22;7805;49.554;7.632;2023-08-24T07:41:21;24.80;99.90
15413;DHT22;7805;49.554;7.632;2023-08-24T07:43:47;24.60;99.90
15413;DHT22;7805;49.554;7.632;2023-08-24T07:46:13;24.40;99.90
15413;DHT22;7805;49.554;7.632;2023-08-24T07:48:39;24.50;99.90
15413;DHT22;7805;49.554;7.632;2023-08-24T07:51:05;24.40;99.90
15413;DHT22;7805;49.554;7.632;2023-08-24T07:53:30;24.50;99.90
15413;DHT22;7805;49.554;7.632;2023-08-24T07:55:58;24.60;99.90
15413;DHT22;7805;49.554;7.632;2023-08-24T07:58:25;24.80;99.90
15413;DHT22;7805;49.554;7.632;2023-08-24T08:00:51;24.90;99.90
15413;DHT22;7805;49.554;7.632;2023-08-24T08:03:19;24.30;99.90
15413;DHT22;7805;49.554;7.632;2023-08-24T08:05:46;25.10;99.90
15413;DHT22;7805;49.554;7.632;2023-08-24T08:08:15;25.10;99.90
15413;DHT22;7805;49.554;7.632;2023-08-24T08:10:42;24.90;99.90
15413;DHT22;7805;49.554;7.632;2023-08-24T08:13:08;24.80;99.90
15413;DHT22;7805;49.554;7.632;2023-08-24T08:15:36;24.50;99.90
15413;DHT22;7805;49.554;7.632;2023-08-24T08:18:04;24.50;99.90
15413;DHT22;7805;49.554;7.632;2023-08-24T08:20:30;24.70;99.90
15413;DHT22;7805;49.554;7.632;2023-08-24T08:22:56;24.70;99.90
15413;DHT22;7805;49.554;7.632;2023-08-24T08:25:21;25.00;99.90
15413;DHT22;7805;49.554;7.632;2023-08-24T08:27:48;25.30;99.90
15413;DHT22;7805;49.554;7.632;2023-08-24T08:30:14;25.50;99.90
15413;DHT22;7805;49.554;7.632;2023-08-24T08:32:40;25.80;99.90
15413;DHT22;7805;49.554;7.632;2023-08-24T08:35:06;25.90;99.90
15413;DHT22;7805;49.554;7.632;2023-08-24T08:37:32;26.00;99.90
15413;DHT22;7805;49.554;7.632;2023-08-24T08:39:57;26.30;99.90
15413;DHT22;7805;49.554;7.632;2023-08-24T08:42:23;26.50;99.90
15413;DHT22;7805;49.554;7.632;2023-08-24T08:44:49;26.80;99.90
15413;DHT22;7805;49.554;7.632;2023-08-24T08:47:15;27.00;99.90
15413;DHT22;7805;49.554;7.632;2023-08-24T08:49:43;27.20;99.90
15413;DHT22;7805;49.554;7.632;2023-08-24T08:52:10;27.40;99.90
15413;DHT22;7805;49.554;7.632;2023-08-24T08:54:37;27.30;99.90
15413;DHT22;7805;49.554;7.632;2023-08-24T08:57:02;27.40;99.70
15413;DHT22;7805;49.554;7.632;2023-08-24T08:59:29;27.70;99.90
15413;DHT22;7805;49.554;7.632;2023-08-24T09:01:57;28.10;99.50
15413;DHT22;7805;49.554;7.632;2023-08-24T09:04:31;28.60;98.60
15413;DHT22;7805;49.554;7.632;2023-08-24T09:06:57;28.80;98.30
15413;DHT22;7805;49.554;7.632;2023-08-24T09:09:22;29.00;97.80
15413;DHT22;7805;49.554;7.632;2023-08-24T09:11:48;29.30;97.40
15413;DHT22;7805;49.554;7.632;2023-08-24T09:14:15;29.50;96.90
15413;DHT22;7805;49.554;7.632;2023-08-24T09:16:41;29.50;96.30
15413;DHT22;7805;49.554;7.632;2023-08-24T09:19:11;29.40;96.40
15413;DHT22;7805;49.554;7.632;2023-08-24T09:21:37;29.50;96.10
15413;DHT22;7805;49.554;7.632;2023-08-24T09:24:06;29.60;96.00
15413;DHT22;7805;49.554;7.632;2023-08-24T09:26:33;29.80;95.80
15413;DHT22;7805;49.554;7.632;2023-08-24T09:29:00;29.90;95.40
15413;DHT22;7805;49.554;7.632;2023-08-24T09:31:36;30.20;94.90
15413;DHT22;7805;49.554;7.632;2023-08-24T09:34:05;30.50;93.70
15413;DHT22;7805;49.554;7.632;2023-08-24T09:36:34;30.60;93.90
15413;DHT22;7805;49.554;7.632;2023-08-24T09:39:01;30.80;93.30
15413;DHT22;7805;49.554;7.632;2023-08-24T09:41:46;31.00;93.30
15413;DHT22;7805;49.554;7.632;2023-08-24T09:44:13;31.20;91.60
15413;DHT22;7805;49.554;7.632;2023-08-24T09:46:42;31.10;91.90
15413;DHT22;7805;49.554;7.632;2023-08-24T09:49:09;31.50;91.30
15413;DHT22;7805;49.554;7.632;2023-08-24T09:51:36;31.80;90.60
15413;DHT22;7805;49.554;7.632;2023-08-24T09:54:13;31.90;89.30
15413;DHT22;7805;49.554;7.632;2023-08-24T09:56:41;31.90;87.00
15413;DHT22;7805;49.554;7.632;2023-08-24T09:59:12;32.00;86.80
15413;DHT22;7805;49.554;7.632;2023-08-24T10:01:45;32.30;84.80
15413;DHT22;7805;49.554;7.632;2023-08-24T10:04:14;32.40;83.80
15413;DHT22;7805;49.554;7.632;2023-08-24T10:06:40;32.30;81.50
15413;DHT22;7805;49.554;7.632;2023-08-24T10:09:10;32.30;80.60
15413;DHT22;7805;49.554;7.632;2023-08-24T10:11:42;32.40;80.00
15413;DHT22;7805;49.554;7.632;2023-08-24T10:14:17;32.20;77.10
15413;DHT22;7805;49.554;7.632;2023-08-24T10:16:46;32.20;74.10
15413;DHT22;7805;49.554;7.632;2023-08-24T10:19:13;32.30;74.80
15413;DHT22;7805;49.554;7.632;2023-08-24T10:21:39;32.30;74.20
15413;DHT22;7805;49.554;7.632;2023-08-24T10:24:06;32.30;73.30
15413;DHT22;7805;49.554;7.632;2023-08-24T10:26:33;32.50;72.80
15413;DHT22;7805;49.554;7.632;2023-08-24T10:28:59;32.60;72.70
15413;DHT22;7805;49.554;7.632;2023-08-24T10:31:26;33.00;73.60
15413;DHT22;7805;49.554;7.632;2023-08-24T10:33:53;33.50;72.30
15413;DHT22;7805;49.554;7.632;2023-08-24T10:36:20;34.00;70.90
15413;DHT22;7805;49.554;7.632;2023-08-24T10:38:48;34.40;69.30
15413;DHT22;7805;49.554;7.632;2023-08-24T10:41:13;34.70;67.80
15413;DHT22;7805;49.554;7.632;2023-08-24T10:43:40;34.80;65.70
15413;DHT22;7805;49.554;7.632;2023-08-24T10:46:15;34.70;64.50
15413;DHT22;7805;49.554;7.632;2023-08-24T10:53:59;34.70;62.00
15413;DHT22;7805;49.554;7.632;2023-08-24T10:59:14;34.40;61.00
15413;DHT22;7805;49.554;7.632;2023-08-24T11:02:01;34.20;61.70
15413;DHT22;7805;49.554;7.632;2023-08-24T11:04:27;34.20;63.00
15413;DHT22;7805;49.554;7.632;2023-08-24T11:06:59;34.00;61.60
15413;DHT22;7805;49.554;7.632;2023-08-24T11:09:45;33.80;62.00
15413;DHT22;7805;49.554;7.632;2023-08-24T11:12:11;33.90;62.90
15413;DHT22;7805;49.554;7.632;2023-08-24T11:14:48;34.00;63.90
15413;DHT22;7805;49.554;7.632;2023-08-24T11:17:22;33.70;64.40
15413;DHT22;7805;49.554;7.632;2023-08-24T11:19:52;33.60;65.40
15413;DHT22;7805;49.554;7.632;2023-08-24T11:22:18;33.40;64.80
15413;DHT22;7805;49.554;7.632;2023-08-24T11:24:45;33.20;65.40
15413;DHT22;7805;49.554;7.632;2023-08-24T11:27:11;33.20;67.40
15413;DHT22;7805;49.554;7.632;2023-08-24T11:29:36;33.00;67.70
15413;DHT22;7805;49.554;7.632;2023-08-24T11:32:02;33.00;67.80
15413;DHT22;7805;49.554;7.632;2023-08-24T11:34:29;33.00;67.20
15413;DHT22;7805;49.554;7.632;2023-08-24T11:36:55;33.10;67.10
15413;DHT22;7805;49.554;7.632;2023-08-24T11:39:22;33.20;67.00
15413;DHT22;7805;49.554;7.632;2023-08-24T11:42:02;33.40;71.80
15413;DHT22;7805;49.554;7.632;2023-08-24T11:44:48;33.30;71.60
15413;DHT22;7805;49.554;7.632;2023-08-24T11:47:15;33.30;75.40
15413;DHT22;7805;49.554;7.632;2023-08-24T11:49:41;33.30;76.50
15413;DHT22;7805;49.554;7.632;2023-08-24T11:52:08;33.20;79.20
15413;DHT22;7805;49.554;7.632;2023-08-24T11:54:34;32.60;82.50
15413;DHT22;7805;49.554;7.632;2023-08-24T11:56:59;32.70;83.50
15413;DHT22;7805;49.554;7.632;2023-08-24T11:59:25;32.80;85.70
15413;DHT22;7805;49.554;7.632;2023-08-24T12:01:52;33.00;87.10
15413;DHT22;7805;49.554;7.632;2023-08-24T12:04:19;33.20;85.00
15413;DHT22;7805;49.554;7.632;2023-08-24T12:06:44;33.20;85.90
15413;DHT22;7805;49.554;7.632;2023-08-24T12:09:10;33.20;85.40
15413;DHT22;7805;49.554;7.632;2023-08-24T12:11:39;33.30;86.20
15413;DHT22;7805;49.554;7.632;2023-08-24T12:14:05;33.40;88.30
15413;DHT22;7805;49.554;7.632;2023-08-24T12:16:32;33.40;88.40
15413;DHT22;7805;49.554;7.632;2023-08-24T12:19:00;33.20;89.90
15413;DHT22;7805;49.554;7.632;2023-08-24T12:21:28;33.00;90.50
15413;DHT22;7805;49.554;7.632;2023-08-24T12:24:15;33.00;90.90
15413;DHT22;7805;49.554;7.632;2023-08-24T12:26:40;32.90;92.10
15413;DHT22;7805;49.554;7.632;2023-08-24T12:29:08;32.60;92.40
15413;DHT22;7805;49.554;7.632;2023-08-24T12:31:34;32.50;92.90
15413;DHT22;7805;49.554;7.632;2023-08-24T12:34:05;32.50;93.50
15413;DHT22;7805;49.554;7.632;2023-08-24T12:36:32;32.50;93.80
15413;DHT22;7805;49.554;7.632;2023-08-24T12:38:58;32.40;93.40
15413;DHT22;7805;49.554;7.632;2023-08-24T12:41:24;32.50;93.30
15413;DHT22;7805;49.554;7.632;2023-08-24T12:43:51;32.40;92.60
15413;DHT22;7805;49.554;7.632;2023-08-24T12:46:17;32.40;91.70
15413;DHT22;7805;49.554;7.632;2023-08-24T12:48:42;32.20;91.30
15413;DHT22;7805;49.554;7.632;2023-08-24T12:51:08;31.90;91.10
15413;DHT22;7805;49.554;7.632;2023-08-24T12:53:34;31.40;91.60
15413;DHT22;7805;49.554;7.632;2023-08-24T12:55:59;31.00;92.20
15413;DHT22;7805;49.554;7.632;2023-08-24T12:58:25;30.70;92.60
15413;DHT22;7805;49.554;7.632;2023-08-24T13:00:50;30.70;93.30
15413;DHT22;7805;49.554;7.632;2023-08-24T13:03:16;30.40;93.70
15413;DHT22;7805;49.554;7.632;2023-08-24T13:05:42;30.10;94.10
15413;DHT22;7805;49.554;7.632;2023-08-24T13:08:07;29.80;94.60
15413;DHT22;7805;49.554;7.632;2023-08-24T13:10:33;29.70;95.20
15413;DHT22;7805;49.554;7.632;2023-08-24T13:12:59;29.70;96.10
15413;DHT22;7805;49.554;7.632;2023-08-24T13:15:24;29.50;96.80
15413;DHT22;7805;49.554;7.632;2023-08-24T13:17:50;29.40;97.50
15413;DHT22;7805;49.554;7.632;2023-08-24T13:20:16;29.40;98.00
15413;DHT22;7805;49.554;7.632;2023-08-24T13:22:41;29.00;98.10
15413;DHT22;7805;49.554;7.632;2023-08-24T13:25:07;28.80;98.30
15413;DHT22;7805;49.554;7.632;2023-08-24T13:27:33;28.80;98.30
15413;DHT22;7805;49.554;7.632;2023-08-24T13:30:02;28.70;98.20
15413;DHT22;7805;49.554;7.632;2023-08-24T13:32:28;28.60;98.00
15413;DHT22;7805;49.554;7.632;2023-08-24T13:34:54;28.60;98.10
15413;DHT22;7805;49.554;7.632;2023-08-24T13:37:21;28.50;97.90
15413;DHT22;7805;49.554;7.632;2023-08-24T13:39:47;28.40;98.00
15413;DHT22;7805;49.554;7.632;2023-08-24T13:42:12;28.10;98.30
15413;DHT22;7805;49.554;7.632;2023-08-24T13:44:38;27.80;98.80
15413;DHT22;7805;49.554;7.632;2023-08-24T13:47:04;27.70;99.30
15413;DHT22;7805;49.554;7.632;2023-08-24T13:49:30;27.60;99.50
15413;DHT22;7805;49.554;7.632;2023-08-24T13:51:55;27.40;99.90
15413;DHT22;7805;49.554;7.632;2023-08-24T13:54:21;27.40;99.90
15413;DHT22;7805;49.554;7.632;2023-08-24T13:56:48;27.30;99.90
15413;DHT22;7805;49.554;7.632;2023-08-24T13:59:17;27.30;99.90
15413;DHT22;7805;49.554;7.632;2023-08-24T14:01:42;27.20;99.90
15413;DHT22;7805;49.554;7.632;2023-08-24T14:04:08;27.30;99.90
15413;DHT22;7805;49.554;7.632;2023-08-24T14:06:34;27.30;99.90
15413;DHT22;7805;49.554;7.632;2023-08-24T14:09:00;27.40;99.90
15413;DHT22;7805;49.554;7.632;2023-08-24T14:11:27;27.40;99.90
15413;DHT22;7805;49.554;7.632;2023-08-24T14:13:53;27.20;99.90
15413;DHT22;7805;49.554;7.632;2023-08-24T14:16:19;26.90;99.90
15413;DHT22;7805;49.554;7.632;2023-08-24T14:18:48;26.70;99.90
15413;DHT22;7805;49.554;7.632;2023-08-24T14:21:14;26.70;99.90
15413;DHT22;7805;49.554;7.632;2023-08-24T14:23:40;26.20;99.90
15413;DHT22;7805;49.554;7.632;2023-08-24T14:26:06;25.90;99.90
15413;DHT22;7805;49.554;7.632;2023-08-24T14:28:52;25.60;99.90
15413;DHT22;7805;49.554;7.632;2023-08-24T14:31:22;25.40;99.90
15413;DHT22;7805;49.554;7.632;2023-08-24T14:33:48;25.30;99.90
15413;DHT22;7805;49.554;7.632;2023-08-24T14:36:15;25.30;99.90
15413;DHT22;7805;49.554;7.632;2023-08-24T14:38:41;25.30;99.90
15413;DHT22;7805;49.554;7.632;2023-08-24T14:41:10;25.30;99.90
15413;DHT22;7805;49.554;7.632;2023-08-24T14:43:36;25.40;99.90
15413;DHT22;7805;49.554;7.632;2023-08-24T14:46:02;25.80;99.90
15413;DHT22;7805;49.554;7.632;2023-08-24T14:48:29;25.50;99.90
15413;DHT22;7805;49.554;7.632;2023-08-24T14:50:55;25.60;99.90
15413;DHT22;7805;49.554;7.632;2023-08-24T14:53:22;25.70;99.90
15413;DHT22;7805;49.554;7.632;2023-08-24T14:55:47;25.60;99.90
15413;DHT22;7805;49.554;7.632;2023-08-24T14:58:13;25.40;99.90
15413;DHT22;7805;49.554;7.632;2023-08-24T15:00:39;25.50;99.90
15413;DHT22;7805;49.554;7.632;2023-08-24T15:03:04;25.70;99.90
15413;DHT22;7805;49.554;7.632;2023-08-24T15:05:30;25.90;99.90
15413;DHT22;7805;49.554;7.632;2023-08-24T15:07:55;25.80;99.90
15413;DHT22;7805;49.554;7.632;2023-08-24T15:10:21;25.70;99.90
15413;DHT22;7805;49.554;7.632;2023-08-24T15:12:47;25.80;99.90
15413;DHT22;7805;49.554;7.632;2023-08-24T15:15:12;25.90;99.90
15413;DHT22;7805;49.554;7.632;2023-08-24T15:17:43;25.90;99.90
15413;DHT22;7805;49.554;7.632;2023-08-24T15:20:10;25.90;99.90
15413;DHT22;7805;49.554;7.632;2023-08-24T15:22:36;25.70;99.90
15413;DHT22;7805;49.554;7.632;2023-08-24T15:25:02;25.50;99.90
15413;DHT22;7805;49.554;7.632;2023-08-24T15:27:28;25.50;99.90
15413;DHT22;7805;49.554;7.632;2023-08-24T15:29:54;25.70;99.90
15413;DHT22;7805;49.554;7.632;2023-08-24T15:32:20;25.70;99.90
15413;DHT22;7805;49.554;7.632;2023-08-24T15:34:46;25.50;99.90
15413;DHT22;7805;49.554;7.632;2023-08-24T15:37:11;25.30;99.90
15413;DHT22;7805;49.554;7.632;2023-08-24T15:39:38;25.30;99.90
15413;DHT22;7805;49.554;7.632;2023-08-24T15:42:05;25.30;99.90
15413;DHT22;7805;49.554;7.632;2023-08-24T15:44:31;25.40;99.90
15413;DHT22;7805;49.554;7.632;2023-08-24T15:46:56;25.60;99.90
15413;DHT22;7805;49.554;7.632;2023-08-24T15:49:22;25.70;99.90
15413;DHT22;7805;49.554;7.632;2023-08-24T15:51:49;25.80;99.90
15413;DHT22;7805;49.554;7.632;2023-08-24T15:54:14;25.70;99.90
15413;DHT22;7805;49.554;7.632;2023-08-24T15:56:40;25.80;99.90